Flight Track Log - Related Links

Times and Time Zones

All times are in EDT time to prevent confusion due to time zone crossing. See the SWA3960 flight status page for this flight to view local times or setup timezone preferences in your user account.

Time Position Orientation Groundspeed Altitude Reporting Facility
EDT Latitude Longitude Course Direction KTS MPH feet Rate Location/Type
Fri 02:51:34 PM 36.0758 -115.2267 270° West 193 222 4,900  Level Los Angeles Center
Fri 02:52:21 PM 36.0533 -115.2625 232° Southwest 220 253 5,900 1,266 Climbing Los Angeles Center
Fri 02:53:23 PM 35.9644 -115.3019 200° South 273 314 7,200 2,160 Climbing Los Angeles Center
Fri 02:54:26 PM 35.8842 -115.3119 186° South 281 323 10,400 2,453 Climbing Los Angeles Center
Fri 02:55:40 PM 35.7917 -115.3075 178° South 308 354 12,800 2,691 Climbing Los Angeles Center
Fri 02:56:42 PM 35.6717 -115.3111 181° South 364 419 16,500 3,387 Climbing Los Angeles Center
Fri 02:57:44 PM 35.5975 -115.4028 225° Southwest 374 430 19,800 3,145 Climbing Los Angeles Center
Fri 02:58:46 PM 35.5092 -115.5222 228° Southwest 387 445 23,000 2,736 Climbing Los Angeles Center
Fri 02:59:49 PM 35.4411 -115.6153 228° Southwest 405 466 25,500 2,400 Climbing Los Angeles Center
Fri 03:00:51 PM 35.3619 -115.7186 227° Southwest 414 476 28,000 1,210 Climbing Los Angeles Center
Fri 03:01:53 PM 35.2650 -115.8486 228° Southwest 427 491 28,000  Level Los Angeles Center
Fri 03:02:55 PM 35.1822 -115.9583 227° Southwest 437 503 28,000  Level Los Angeles Center
Fri 03:03:57 PM 35.0983 -116.0683 227° Southwest 441 507 28,000  Level Los Angeles Center
Fri 03:04:59 PM 35.0142 -116.1772 227° Southwest 441 507 28,000  Level Los Angeles Center
Fri 03:06:01 PM 34.9308 -116.2881 227° Southwest 442 509 28,000  Level Los Angeles Center
Fri 03:07:03 PM 34.8472 -116.3981 227° Southwest 443 510 28,000  Level Los Angeles Center
Fri 03:08:06 PM 34.7453 -116.5281 226° Southwest 442 509 28,000  Level Los Angeles Center
Fri 03:09:08 PM 34.6572 -116.6331 224° Southwest 443 510 28,000 -1,452 Level Los Angeles Center
Fri 03:10:10 PM 34.5717 -116.7411 226° Southwest 442 509 25,000 -3,000 Descending Los Angeles Center
Fri 03:11:12 PM 34.4869 -116.8442 225° Southwest 433 498 21,800 -3,194 Descending Los Angeles Center
Fri 03:12:14 PM 34.4042 -116.9414 224° Southwest 417 480 18,400 -3,339 Descending Los Angeles Center
Fri 03:13:16 PM 34.3261 -117.0364 225° Southwest 402 463 14,900 -2,613 Descending Los Angeles Center
Fri 03:14:18 PM 34.2247 -117.1147 213° Southwest 363 418 13,000 -919 Descending Los Angeles Center
Fri 03:15:20 PM 34.1294 -117.1294 187° South 345 397 13,000  Level Los Angeles Center
Fri 03:15:47 PM 34.0833 -117.1333 184° South 347 399 13,000 -552 Level Southern California TRACON
Fri 03:16:47 PM 34.0000 -117.1833 206° Southwest 356 410 12,200 -1,000 Descending Southern California TRACON
Fri 03:17:41 PM 33.9167 -117.2167 198° South 337 388 11,100 -1,316 Descending Southern California TRACON
Fri 03:18:41 PM 33.8667 -117.3000 234° Southwest 315 362 9,700 -1,400 Descending Southern California TRACON
Fri 03:19:41 PM 33.8408 -117.3911 251° West 303 349 8,300 -836 Descending Los Angeles Center
Fri 03:20:43 PM 33.8122 -117.4822 249° West 294 338 8,000 -290 Descending Los Angeles Center
Fri 03:21:45 PM 33.7917 -117.5556 251° West 248 285 7,700 -677 Descending Los Angeles Center
Fri 03:22:47 PM 33.7842 -117.6256 263° West 225 259 6,600 -1,282 Descending Los Angeles Center
Fri 03:23:42 PM 33.7833 -117.7000 269° West 219 252 5,200 -1,357 Descending Southern California TRACON
Fri 03:24:42 PM 33.7833 -117.7667 270° West 204 235 4,000 -1,200 Descending Southern California TRACON
Fri 03:25:42 PM 33.7667 -117.8167 248° West 178 205 2,800 -1,450 Descending Southern California TRACON
Fri 03:26:42 PM 33.7167 -117.8333 195° South 150 173 1,100 -1,250 Descending Southern California TRACON
Fri 03:27:42 PM 33.6833 -117.8667 220° Southwest 131 151 300 -800 Descending Southern California TRACON
Fri 03:29:00 PM 33.6757 -117.8682 132° Southeast  Level Estimated
Fri 03:36:00 PM 33.6757 -117.8682 132° Southeast  Level Estimated

Login

Don't have an account? Register now (free) for customized features, flight alerts, and more!